Terminal Aerodrome Forecast
Issued by NWS Sterling, VA

Home | Current Version | Previous Version | Text Only | Print | Product List | Glossary On
Versions: 1 2 3 4 5 6 7 8 9 10 11 12 13 14 15 16 17 18 19 20 21 22 23 24 25 26 27 28 29
000
FTUS41 KLWX 010202 AAA
TAFIAD
TAF AMD
KIAD 010202Z 0102/0206 18006KT P6SM SCT050
     FM010300 21005KT P6SM VCTS BKN060CB
      TEMPO 0103/0107 5SM -TSRA
     FM010700 VRB04KT P6SM SCT060 SCT100
     FM011300 25007KT P6SM SCT200
     FM011600 27010G17KT P6SM SCT060=

USA.gov is the U.S. government's official web portal to all federal, state and local government web resources and services.